Time,TemperatureF,DewpointF,PressureIn,WindDirection,WindDirectionDegrees,WindSpeedMPH,WindSpeedGustMPH,Humidity,HourlyPrecipIn,Conditions,Clouds,dailyrainin,SoftwareType,DateUTC
2013-03-19 00:00:00,23.0,13.3,29.81,NNW,337,0.0,6.0,66,0.00,,,0.00,Weather View 32 v70,2013-03-19 04:00:00,
2013-03-19 00:01:00,23.0,13.3,29.81,NNW,337,0.0,5.0,66,0.00,,,0.00,Weather View 32 v70,2013-03-19 04:01:00,
2013-03-19 00:06:00,23.0,13.3,29.80,NNW,337,0.0,4.0,66,0.00,,,0.00,Weather View 32 v70,2013-03-19 04:06:00,
2013-03-19 00:11:00,23.0,13.7,29.80,NNW,337,0.0,3.0,67,0.00,,,0.00,Weather View 32 v70,2013-03-19 04:11:00,
2013-03-19 00:16:00,23.0,14.0,29.80,NNW,337,0.0,3.0,68,0.00,,,0.00,Weather View 32 v70,2013-03-19 04:16:00,
2013-03-19 00:21:00,23.0,14.3,29.79,NNW,337,1.0,3.0,69,0.00,,,0.00,Weather View 32 v70,2013-03-19 04:21:00,
2013-03-19 00:26:00,23.0,14.3,29.79,NNW,337,0.0,3.0,69,0.00,,,0.00,Weather View 32 v70,2013-03-19 04:26:00,
2013-03-19 00:31:00,23.0,14.7,29.80,NNW,337,0.0,3.0,70,0.00,,,0.00,Weather View 32 v70,2013-03-19 04:31:00,
2013-03-19 00:36:00,23.0,15.0,29.80,North,360,2.0,5.0,71,0.00,,,0.00,Weather View 32 v70,2013-03-19 04:36:00,
2013-03-19 00:42:00,23.0,15.0,29.81,North,360,3.0,5.0,71,0.00,,,0.00,Weather View 32 v70,2013-03-19 04:42:00,
2013-03-19 00:47:00,23.0,15.0,29.81,North,360,0.0,5.0,71,0.00,,,0.00,Weather View 32 v70,2013-03-19 04:47:00,
2013-03-19 00:52:00,23.0,15.6,29.80,NE,45,5.0,5.0,73,0.00,,,0.00,Weather View 32 v70,2013-03-19 04:52:00,
2013-03-19 00:57:00,23.0,15.0,29.81,NNE,22,2.0,6.0,71,0.00,,,0.00,Weather View 32 v70,2013-03-19 04:57:00,
2013-03-19 01:02:00,23.0,15.0,29.81,North,360,0.0,6.0,71,0.00,,,0.00,Weather View 32 v70,2013-03-19 05:02:00,
2013-03-19 01:07:00,23.0,15.0,29.80,NNW,337,1.0,6.0,71,0.00,,,0.00,Weather View 32 v70,2013-03-19 05:07:00,
2013-03-19 01:12:00,23.0,15.0,29.78,NNE,22,5.0,6.0,71,0.00,,,0.00,Weather View 32 v70,2013-03-19 05:12:00,
2013-03-19 01:17:00,23.0,15.0,29.80,NNW,337,1.0,6.0,71,0.00,,,0.00,Weather View 32 v70,2013-03-19 05:17:00,
2013-03-19 01:22:00,23.0,15.3,29.81,NNW,337,4.0,6.0,72,0.00,,,0.00,Weather View 32 v70,2013-03-19 05:22:00,
2013-03-19 01:27:00,23.0,15.6,29.81,NNW,337,0.0,6.0,73,0.00,,,0.00,Weather View 32 v70,2013-03-19 05:27:00,
2013-03-19 01:32:00,23.0,15.0,29.81,NNE,22,3.0,6.0,71,0.00,,,0.00,Weather View 32 v70,2013-03-19 05:32:00,
2013-03-19 01:37:00,23.0,15.0,29.80,NNE,22,1.0,6.0,71,0.00,,,0.00,Weather View 32 v70,2013-03-19 05:37:00,
2013-03-19 01:42:00,23.0,15.0,29.80,North,360,5.0,6.0,71,0.00,,,0.00,Weather View 32 v70,2013-03-19 05:42:00,
2013-03-19 01:47:00,23.0,14.3,29.80,North,360,3.0,6.0,69,0.00,,,0.00,Weather View 32 v70,2013-03-19 05:47:00,
2013-03-19 01:52:00,23.0,14.3,29.80,NNE,22,3.0,6.0,69,0.00,,,0.00,Weather View 32 v70,2013-03-19 05:52:00,
2013-03-19 01:57:00,23.0,14.3,29.80,NNE,22,2.0,6.0,69,0.00,,,0.00,Weather View 32 v70,2013-03-19 05:57:00,
2013-03-19 02:02:00,24.0,11.4,29.79,East,90,3.0,6.0,58,0.00,,,0.00,Weather View 32 v70,2013-03-19 06:02:00,
2013-03-19 02:07:00,24.0,8.5,29.79,ENE,67,3.0,7.0,51,0.00,,,0.00,Weather View 32 v70,2013-03-19 06:07:00,
2013-03-19 02:12:00,25.0,7.1,29.79,East,90,2.0,7.0,46,0.00,,,0.00,Weather View 32 v70,2013-03-19 06:12:00,
2013-03-19 02:17:00,25.0,6.2,29.79,ESE,112,2.0,7.0,44,0.00,,,0.00,Weather View 32 v70,2013-03-19 06:17:00,
2013-03-19 02:22:00,25.0,6.6,29.79,East,90,3.0,7.0,45,0.00,,,0.00,Weather View 32 v70,2013-03-19 06:22:00,
2013-03-19 02:27:00,25.0,6.6,29.79,ENE,67,1.0,7.0,45,0.00,,,0.00,Weather View 32 v70,2013-03-19 06:27:00,
2013-03-19 02:32:00,25.0,6.6,29.79,ENE,67,2.0,7.0,45,0.00,,,0.00,Weather View 32 v70,2013-03-19 06:32:00,
2013-03-19 02:37:00,25.0,6.6,29.79,East,90,2.0,7.0,45,0.00,,,0.00,Weather View 32 v70,2013-03-19 06:37:00,
2013-03-19 02:42:00,25.0,7.6,29.79,ESE,112,3.0,7.0,47,0.00,,,0.00,Weather View 32 v70,2013-03-19 06:42:00,
2013-03-19 02:47:00,25.0,7.6,29.79,SE,135,0.0,7.0,47,0.00,,,0.00,Weather View 32 v70,2013-03-19 06:47:00,
2013-03-19 02:52:00,25.0,6.6,29.79,ESE,112,2.0,7.0,45,0.00,,,0.00,Weather View 32 v70,2013-03-19 06:52:00,
2013-03-19 02:57:00,25.0,5.6,29.79,ENE,67,6.0,7.0,43,0.00,,,0.00,Weather View 32 v70,2013-03-19 06:57:00,
2013-03-19 03:02:00,25.0,5.6,29.78,ESE,112,6.0,7.0,43,0.00,,,0.00,Weather View 32 v70,2013-03-19 07:02:00,
2013-03-19 03:07:00,25.0,5.6,29.79,East,90,2.0,7.0,43,0.00,,,0.00,Weather View 32 v70,2013-03-19 07:07:00,
2013-03-19 03:12:00,25.0,6.6,29.78,ESE,112,2.0,7.0,45,0.00,,,0.00,Weather View 32 v70,2013-03-19 07:12:00,
2013-03-19 03:17:00,25.0,6.6,29.79,SE,135,1.0,7.0,45,0.00,,,0.00,Weather View 32 v70,2013-03-19 07:17:00,
2013-03-19 03:22:00,25.0,6.6,29.78,ENE,67,1.0,7.0,45,0.00,,,0.00,Weather View 32 v70,2013-03-19 07:22:00,
2013-03-19 03:27:00,25.0,7.1,29.79,ENE,67,2.0,7.0,46,0.00,,,0.00,Weather View 32 v70,2013-03-19 07:27:00,
2013-03-19 03:32:00,25.0,7.6,29.78,East,90,2.0,7.0,47,0.00,,,0.00,Weather View 32 v70,2013-03-19 07:32:00,
2013-03-19 03:37:00,25.0,7.6,29.78,SE,135,3.0,7.0,47,0.00,,,0.00,Weather View 32 v70,2013-03-19 07:37:00,
2013-03-19 03:42:00,25.0,7.6,29.78,ENE,67,1.0,7.0,47,0.00,,,0.00,Weather View 32 v70,2013-03-19 07:42:00,
2013-03-19 03:47:00,25.0,7.6,29.78,ENE,67,0.0,7.0,47,0.00,,,0.00,Weather View 32 v70,2013-03-19 07:47:00,
2013-03-19 03:52:00,25.0,7.1,29.77,ENE,67,6.0,7.0,46,0.00,,,0.00,Weather View 32 v70,2013-03-19 07:52:00,
2013-03-19 03:57:00,25.0,6.2,29.77,SE,135,2.0,7.0,44,0.00,,,0.00,Weather View 32 v70,2013-03-19 07:57:00,
2013-03-19 04:02:00,26.0,5.5,29.77,East,90,5.0,10.0,41,0.00,,,0.00,Weather View 32 v70,2013-03-19 08:02:00,
2013-03-19 04:07:00,26.0,5.0,29.77,ENE,67,7.0,10.0,40,0.00,,,0.00,Weather View 32 v70,2013-03-19 08:07:00,
2013-03-19 04:12:00,25.0,4.6,29.77,East,90,3.0,10.0,41,0.00,,,0.00,Weather View 32 v70,2013-03-19 08:12:00,
2013-03-19 04:17:00,25.0,5.1,29.77,ESE,112,6.0,10.0,42,0.00,,,0.00,Weather View 32 v70,2013-03-19 08:17:00,
2013-03-19 04:22:00,25.0,5.1,29.77,East,90,2.0,10.0,42,0.00,,,0.00,Weather View 32 v70,2013-03-19 08:22:00,
2013-03-19 04:27:00,25.0,5.1,29.77,East,90,7.0,10.0,42,0.00,,,0.00,Weather View 32 v70,2013-03-19 08:27:00,
2013-03-19 04:32:00,25.0,5.1,29.77,ENE,67,5.0,10.0,42,0.00,,,0.00,Weather View 32 v70,2013-03-19 08:32:00,
2013-03-19 04:37:00,25.0,4.6,29.76,East,90,5.0,10.0,41,0.00,,,0.00,Weather View 32 v70,2013-03-19 08:37:00,
2013-03-19 04:42:00,25.0,4.6,29.76,ENE,67,3.0,10.0,41,0.00,,,0.00,Weather View 32 v70,2013-03-19 08:42:00,
2013-03-19 04:48:00,25.0,4.6,29.76,ESE,112,1.0,10.0,41,0.00,,,0.00,Weather View 32 v70,2013-03-19 08:48:00,
2013-03-19 04:53:00,25.0,5.1,29.76,ENE,67,3.0,10.0,42,0.00,,,0.00,Weather View 32 v70,2013-03-19 08:53:00,
2013-03-19 04:58:00,24.0,3.2,29.76,East,90,3.0,10.0,40,0.00,,,0.00,Weather View 32 v70,2013-03-19 08:58:00,
2013-03-19 05:02:00,24.0,2.6,29.76,ESE,112,2.0,10.0,39,0.00,,,0.00,Weather View 32 v70,2013-03-19 09:02:00,
2013-03-19 05:08:00,24.0,2.1,29.75,East,90,6.0,10.0,38,0.00,,,0.00,Weather View 32 v70,2013-03-19 09:08:00,
2013-03-19 05:13:00,24.0,2.1,29.75,ENE,67,7.0,12.0,38,0.00,,,0.00,Weather View 32 v70,2013-03-19 09:13:00,
2013-03-19 05:18:00,24.0,2.1,29.75,ESE,112,8.0,12.0,38,0.00,,,0.00,Weather View 32 v70,2013-03-19 09:18:00,
2013-03-19 05:23:00,24.0,2.1,29.75,ESE,112,7.0,13.0,38,0.00,,,0.00,Weather View 32 v70,2013-03-19 09:23:00,
2013-03-19 05:28:00,24.0,3.2,29.75,NE,45,5.0,13.0,40,0.00,,,0.00,Weather View 32 v70,2013-03-19 09:28:00,
2013-03-19 05:33:00,24.0,3.2,29.75,East,90,3.0,13.0,40,0.00,,,0.00,Weather View 32 v70,2013-03-19 09:33:00,
2013-03-19 05:38:00,24.0,3.2,29.76,East,90,7.0,13.0,40,0.00,,,0.00,Weather View 32 v70,2013-03-19 09:38:00,
2013-03-19 05:43:00,24.0,3.2,29.75,SE,135,5.0,13.0,40,0.00,,,0.00,Weather View 32 v70,2013-03-19 09:43:00,
2013-03-19 05:48:00,24.0,3.2,29.75,SE,135,5.0,13.0,40,0.00,,,0.00,Weather View 32 v70,2013-03-19 09:48:00,
2013-03-19 05:53:00,24.0,3.2,29.75,East,90,1.0,13.0,40,0.00,,,0.00,Weather View 32 v70,2013-03-19 09:53:00,
2013-03-19 05:58:00,24.0,3.2,29.74,SE,135,5.0,13.0,40,0.00,,,0.00,Weather View 32 v70,2013-03-19 09:58:00,
2013-03-19 06:03:00,24.0,3.2,29.73,ENE,67,9.0,13.0,40,0.00,,,0.00,Weather View 32 v70,2013-03-19 10:03:00,
2013-03-19 06:08:00,24.0,3.7,29.74,SSE,157,5.0,13.0,41,0.00,,,0.00,Weather View 32 v70,2013-03-19 10:08:00,
2013-03-19 06:13:00,24.0,3.7,29.74,SE,135,5.0,13.0,41,0.00,,,0.00,Weather View 32 v70,2013-03-19 10:13:00,
2013-03-19 06:18:00,24.0,3.7,29.74,North,360,3.0,13.0,41,0.00,,,0.00,Weather View 32 v70,2013-03-19 10:18:00,
2013-03-19 06:23:00,24.0,4.2,29.71,SE,135,6.0,12.0,42,0.00,,,0.00,Weather View 32 v70,2013-03-19 10:23:00,
2013-03-19 06:28:00,24.0,4.2,29.74,ENE,67,3.0,11.0,42,0.00,,,0.00,Weather View 32 v70,2013-03-19 10:28:00,
2013-03-19 06:33:00,24.0,4.2,29.74,SE,135,5.0,11.0,42,0.00,,,0.00,Weather View 32 v70,2013-03-19 10:33:00,
2013-03-19 06:38:00,24.0,4.2,29.74,East,90,0.0,11.0,42,0.00,,,0.00,Weather View 32 v70,2013-03-19 10:38:00,
2013-03-19 06:43:00,24.0,4.2,29.73,East,90,6.0,11.0,42,0.00,,,0.00,Weather View 32 v70,2013-03-19 10:43:00,
2013-03-19 06:48:00,23.0,3.3,29.73,ENE,67,5.0,11.0,42,0.00,,,0.00,Weather View 32 v70,2013-03-19 10:48:00,
2013-03-19 06:53:00,23.0,3.3,29.73,NNE,22,0.0,11.0,42,0.00,,,0.00,Weather View 32 v70,2013-03-19 10:53:00,
2013-03-19 06:58:00,23.0,3.8,29.74,ESE,112,5.0,11.0,43,0.00,,,0.00,Weather View 32 v70,2013-03-19 10:58:00,
2013-03-19 07:03:00,24.0,4.7,29.74,SE,135,6.0,11.0,43,0.00,,,0.00,Weather View 32 v70,2013-03-19 11:03:00,
2013-03-19 07:08:00,24.0,5.2,29.74,ESE,112,4.0,10.0,44,0.00,,,0.00,Weather View 32 v70,2013-03-19 11:08:00,
2013-03-19 07:13:00,24.0,5.7,29.74,ESE,112,6.0,10.0,45,0.00,,,0.00,Weather View 32 v70,2013-03-19 11:13:00,
2013-03-19 07:18:00,24.0,5.7,29.73,SE,135,4.0,10.0,45,0.00,,,0.00,Weather View 32 v70,2013-03-19 11:18:00,
2013-03-19 07:23:00,24.0,6.2,29.74,ENE,67,3.0,10.0,46,0.00,,,0.00,Weather View 32 v70,2013-03-19 11:23:00,
2013-03-19 07:28:00,24.0,6.7,29.73,NE,45,6.0,10.0,47,0.00,,,0.00,Weather View 32 v70,2013-03-19 11:28:00,
2013-03-19 07:33:00,24.0,7.1,29.73,ESE,112,2.0,10.0,48,0.00,,,0.00,Weather View 32 v70,2013-03-19 11:33:00,
2013-03-19 07:38:00,24.0,7.1,29.73,ESE,112,3.0,10.0,48,0.00,,,0.00,Weather View 32 v70,2013-03-19 11:38:00,
2013-03-19 07:43:00,24.0,7.1,29.73,East,90,2.0,10.0,48,0.00,,,0.00,Weather View 32 v70,2013-03-19 11:43:00,
2013-03-19 07:48:00,24.0,7.6,29.73,East,90,5.0,10.0,49,0.00,,,0.00,Weather View 32 v70,2013-03-19 11:48:00,
2013-03-19 07:53:00,24.0,7.6,29.73,ENE,67,1.0,10.0,49,0.00,,,0.00,Weather View 32 v70,2013-03-19 11:53:00,
2013-03-19 07:58:00,24.0,8.0,29.73,SE,135,2.0,10.0,50,0.00,,,0.00,Weather View 32 v70,2013-03-19 11:58:00,
2013-03-19 08:03:00,24.0,8.0,29.73,East,90,6.0,10.0,50,0.00,,,0.00,Weather View 32 v70,2013-03-19 12:03:00,
2013-03-19 08:08:00,24.0,8.0,29.73,East,90,4.0,12.0,50,0.00,,,0.00,Weather View 32 v70,2013-03-19 12:08:00,
2013-03-19 08:13:00,24.0,8.5,29.73,ESE,112,7.0,15.0,51,0.00,,,0.00,Weather View 32 v70,2013-03-19 12:13:00,
2013-03-19 08:18:00,24.0,9.3,29.73,SE,135,4.0,15.0,53,0.00,,,0.00,Weather View 32 v70,2013-03-19 12:18:00,
2013-03-19 08:23:00,24.0,10.2,29.73,East,90,2.0,15.0,55,0.00,,,0.00,Weather View 32 v70,2013-03-19 12:23:00,
2013-03-19 08:28:00,24.0,11.0,29.72,SE,135,7.0,15.0,57,0.00,,,0.00,Weather View 32 v70,2013-03-19 12:28:00,
2013-03-19 08:33:00,24.0,11.7,29.72,NNE,22,2.0,15.0,59,0.00,,,0.00,Weather View 32 v70,2013-03-19 12:33:00,
2013-03-19 08:38:00,24.0,12.5,29.71,ESE,112,7.0,15.0,61,0.00,,,0.00,Weather View 32 v70,2013-03-19 12:38:00,
2013-03-19 08:43:00,24.0,12.5,29.71,SSE,157,7.0,15.0,61,0.00,,,0.00,Weather View 32 v70,2013-03-19 12:43:00,
2013-03-19 08:48:00,24.0,13.9,29.71,SSE,157,6.0,15.0,65,0.00,,,0.00,Weather View 32 v70,2013-03-19 12:48:00,
2013-03-19 08:53:00,24.0,15.0,29.71,SE,135,7.0,15.0,68,0.00,,,0.00,Weather View 32 v70,2013-03-19 12:53:00,
2013-03-19 08:58:00,24.0,15.3,29.71,ESE,112,12.0,16.0,69,0.00,,,0.00,Weather View 32 v70,2013-03-19 12:58:00,
2013-03-19 09:03:00,24.0,16.0,29.71,East,90,6.0,16.0,71,0.00,,,0.00,Weather View 32 v70,2013-03-19 13:03:00,
2013-03-19 09:08:00,24.0,16.6,29.71,ESE,112,7.0,16.0,73,0.00,,,0.00,Weather View 32 v70,2013-03-19 13:08:00,
2013-03-19 09:13:00,23.0,17.5,29.71,ESE,112,7.0,16.0,79,0.00,,,0.00,Weather View 32 v70,2013-03-19 13:13:00,
2013-03-19 09:18:00,23.0,18.9,29.71,ENE,67,3.0,16.0,84,0.00,,,0.00,Weather View 32 v70,2013-03-19 13:18:00,
2013-03-19 09:23:00,23.0,19.7,29.71,East,90,3.0,16.0,87,0.00,,,0.00,Weather View 32 v70,2013-03-19 13:23:00,
2013-03-19 09:28:00,23.0,20.5,29.71,ESE,112,1.0,16.0,90,0.00,,,0.00,Weather View 32 v70,2013-03-19 13:28:00,
2013-03-19 09:33:00,23.0,21.0,29.71,SE,135,0.0,16.0,92,0.00,,,0.00,Weather View 32 v70,2013-03-19 13:33:00,
2013-03-19 09:39:00,23.0,21.5,29.70,East,90,5.0,16.0,94,0.00,,,0.00,Weather View 32 v70,2013-03-19 13:39:00,
2013-03-19 09:44:00,22.0,21.0,29.70,ESE,112,5.0,16.0,96,0.00,,,0.00,Weather View 32 v70,2013-03-19 13:44:00,
2013-03-19 09:49:00,23.0,22.3,29.71,ESE,112,5.0,16.0,97,0.00,,,0.00,Weather View 32 v70,2013-03-19 13:49:00,
2013-03-19 09:54:00,22.0,21.5,29.71,ESE,112,10.0,16.0,98,0.00,,,0.00,Weather View 32 v70,2013-03-19 13:54:00,
2013-03-19 09:59:00,23.0,22.5,29.70,ENE,67,7.0,16.0,98,0.00,,,0.00,Weather View 32 v70,2013-03-19 13:59:00,
2013-03-19 10:04:00,23.0,22.8,29.71,ESE,112,10.0,14.0,99,0.00,,,0.00,Weather View 32 v70,2013-03-19 14:04:00,
2013-03-19 10:09:00,23.0,22.8,29.70,ESE,112,3.0,14.0,99,0.00,,,0.00,Weather View 32 v70,2013-03-19 14:09:00,
2013-03-19 10:14:00,23.0,22.8,29.70,ESE,112,6.0,15.0,99,0.00,,,0.00,Weather View 32 v70,2013-03-19 14:14:00,
2013-03-19 10:19:00,23.0,22.8,29.70,East,90,9.0,15.0,99,0.00,,,0.00,Weather View 32 v70,2013-03-19 14:19:00,
2013-03-19 10:24:00,23.0,22.8,29.70,ESE,112,7.0,15.0,99,0.00,,,0.00,Weather View 32 v70,2013-03-19 14:24:00,
2013-03-19 10:29:00,23.0,22.8,29.70,ESE,112,6.0,15.0,99,0.00,,,0.00,Weather View 32 v70,2013-03-19 14:29:00,
2013-03-19 10:34:00,23.0,22.5,29.69,East,90,7.0,15.0,98,0.00,,,0.00,Weather View 32 v70,2013-03-19 14:34:00,
2013-03-19 10:39:00,23.0,22.8,29.67,ESE,112,6.0,15.0,99,0.00,,,0.00,Weather View 32 v70,2013-03-19 14:39:00,
2013-03-19 10:44:00,24.0,23.5,29.69,ESE,112,12.0,15.0,98,0.00,,,0.00,Weather View 32 v70,2013-03-19 14:44:00,
2013-03-19 10:49:00,24.0,23.5,29.69,SE,135,6.0,15.0,98,0.00,,,0.00,Weather View 32 v70,2013-03-19 14:49:00,
2013-03-19 10:54:00,24.0,23.8,29.68,East,90,6.0,15.0,99,0.00,,,0.00,Weather View 32 v70,2013-03-19 14:54:00,
2013-03-19 10:59:00,24.0,23.8,29.68,ESE,112,7.0,16.0,99,0.00,,,0.00,Weather View 32 v70,2013-03-19 14:59:00,
2013-03-19 11:04:00,24.0,23.8,29.68,SE,135,9.0,16.0,99,0.00,,,0.00,Weather View 32 v70,2013-03-19 15:04:00,
2013-03-19 11:09:00,24.0,23.5,29.67,ESE,112,4.0,16.0,98,0.00,,,0.00,Weather View 32 v70,2013-03-19 15:09:00,
2013-03-19 11:14:00,24.0,23.5,29.68,East,90,6.0,16.0,98,0.00,,,0.00,Weather View 32 v70,2013-03-19 15:14:00,
2013-03-19 11:19:00,24.0,23.5,29.67,ESE,112,7.0,16.0,98,0.00,,,0.00,Weather View 32 v70,2013-03-19 15:19:00,
2013-03-19 11:24:00,24.0,23.3,29.68,East,90,6.0,17.0,97,0.00,,,0.00,Weather View 32 v70,2013-03-19 15:24:00,
2013-03-19 11:29:00,24.0,23.3,29.67,ESE,112,2.0,17.0,97,0.00,,,0.00,Weather View 32 v70,2013-03-19 15:29:00,
2013-03-19 11:34:00,25.0,24.5,29.67,NNE,22,3.0,17.0,98,0.00,,,0.00,Weather View 32 v70,2013-03-19 15:34:00,
2013-03-19 11:39:00,25.0,24.5,29.67,SE,135,7.0,17.0,98,0.00,,,0.00,Weather View 32 v70,2013-03-19 15:39:00,
2013-03-19 11:44:00,24.0,23.5,29.67,SE,135,6.0,17.0,98,0.00,,,0.00,Weather View 32 v70,2013-03-19 15:44:00,
2013-03-19 11:49:00,24.0,23.5,29.65,ESE,112,5.0,20.0,98,0.00,,,0.00,Weather View 32 v70,2013-03-19 15:49:00,
2013-03-19 11:54:00,24.0,23.3,29.65,ESE,112,6.0,20.0,97,0.00,,,0.00,Weather View 32 v70,2013-03-19 15:54:00,
2013-03-19 11:59:00,24.0,23.3,29.65,ESE,112,5.0,20.0,97,0.00,,,0.00,Weather View 32 v70,2013-03-19 15:59:00,
2013-03-19 12:04:00,24.0,23.0,29.65,East,90,8.0,20.0,96,0.00,,,0.00,Weather View 32 v70,2013-03-19 16:04:00,
2013-03-19 12:09:00,25.0,24.0,29.65,ESE,112,12.0,20.0,96,0.00,,,0.00,Weather View 32 v70,2013-03-19 16:09:00,
2013-03-19 12:14:00,25.0,24.0,29.65,NE,45,5.0,20.0,96,0.00,,,0.00,Weather View 32 v70,2013-03-19 16:14:00,
2013-03-19 12:19:00,25.0,24.0,29.65,SE,135,15.0,20.0,96,0.00,,,0.00,Weather View 32 v70,2013-03-19 16:19:00,
2013-03-19 12:24:00,24.0,22.5,29.65,SE,135,4.0,20.0,94,0.00,,,0.00,Weather View 32 v70,2013-03-19 16:24:00,
2013-03-19 12:29:00,25.0,23.5,29.65,ESE,112,12.0,20.0,94,0.00,,,0.00,Weather View 32 v70,2013-03-19 16:29:00,
2013-03-19 12:34:00,24.0,22.5,29.65,ESE,112,9.0,20.0,94,0.00,,,0.00,Weather View 32 v70,2013-03-19 16:34:00,
2013-03-19 12:39:00,24.0,22.3,29.65,East,90,11.0,23.0,93,0.00,,,0.00,Weather View 32 v70,2013-03-19 16:39:00,
2013-03-19 12:44:00,24.0,22.3,29.64,SE,135,6.0,23.0,93,0.00,,,0.00,Weather View 32 v70,2013-03-19 16:44:00,
2013-03-19 12:49:00,24.0,22.3,29.64,ESE,112,9.0,23.0,93,0.00,,,0.00,Weather View 32 v70,2013-03-19 16:49:00,
2013-03-19 12:54:00,24.0,22.8,29.63,SSE,157,4.0,23.0,95,0.00,,,0.00,Weather View 32 v70,2013-03-19 16:54:00,
2013-03-19 12:59:00,24.0,23.0,29.63,ESE,112,9.0,23.0,96,0.00,,,0.00,Weather View 32 v70,2013-03-19 16:59:00,
2013-03-19 13:04:00,24.0,23.3,29.63,ESE,112,11.0,23.0,97,0.00,,,0.00,Weather View 32 v70,2013-03-19 17:04:00,
2013-03-19 13:09:00,24.0,23.5,29.62,ESE,112,10.0,23.0,98,0.00,,,0.00,Weather View 32 v70,2013-03-19 17:09:00,
2013-03-19 13:14:00,24.0,23.8,29.62,SSE,157,7.0,23.0,99,0.00,,,0.00,Weather View 32 v70,2013-03-19 17:14:00,
2013-03-19 13:19:00,24.0,23.5,29.62,ESE,112,9.0,23.0,98,0.00,,,0.00,Weather View 32 v70,2013-03-19 17:19:00,
2013-03-19 13:24:00,24.0,23.0,29.61,ESE,112,7.0,23.0,96,0.00,,,0.00,Weather View 32 v70,2013-03-19 17:24:00,
2013-03-19 13:29:00,24.0,22.8,29.61,SE,135,8.0,23.0,95,0.00,,,0.00,Weather View 32 v70,2013-03-19 17:29:00,
2013-03-19 13:34:00,24.0,23.0,29.59,ESE,112,9.0,23.0,96,0.00,,,0.00,Weather View 32 v70,2013-03-19 17:34:00,
2013-03-19 13:39:00,24.0,23.0,29.59,SSE,157,9.0,20.0,96,0.00,,,0.00,Weather View 32 v70,2013-03-19 17:39:00,
2013-03-19 13:44:00,24.0,23.3,29.59,SE,135,5.0,20.0,97,0.00,,,0.00,Weather View 32 v70,2013-03-19 17:44:00,
2013-03-19 13:49:00,24.0,23.5,29.58,SE,135,6.0,19.0,98,0.00,,,0.00,Weather View 32 v70,2013-03-19 17:49:00,
2013-03-19 13:54:00,24.0,23.5,29.58,SSE,157,9.0,19.0,98,0.00,,,0.00,Weather View 32 v70,2013-03-19 17:54:00,
2013-03-19 13:59:00,24.0,23.8,29.58,SE,135,5.0,19.0,99,0.00,,,0.00,Weather View 32 v70,2013-03-19 17:59:00,
2013-03-19 14:04:00,24.0,23.8,29.58,SE,135,15.0,19.0,99,0.00,,,0.00,Weather View 32 v70,2013-03-19 18:04:00,
2013-03-19 14:09:00,24.0,23.5,29.57,SE,135,7.0,19.0,98,0.00,,,0.00,Weather View 32 v70,2013-03-19 18:09:00,
2013-03-19 14:14:00,24.0,23.5,29.57,SSE,157,9.0,19.0,98,0.00,,,0.00,Weather View 32 v70,2013-03-19 18:14:00,
2013-03-19 14:19:00,24.0,23.8,29.56,ESE,112,4.0,19.0,99,0.00,,,0.00,Weather View 32 v70,2013-03-19 18:19:00,
2013-03-19 14:24:00,24.0,23.8,29.56,SSE,157,5.0,19.0,99,0.00,,,0.00,Weather View 32 v70,2013-03-19 18:24:00,
2013-03-19 14:29:00,24.0,23.3,29.55,SSE,157,6.0,17.0,97,0.00,,,0.00,Weather View 32 v70,2013-03-19 18:29:00,
2013-03-19 14:34:00,24.0,23.3,29.55,SSE,157,10.0,24.0,97,0.00,,,0.00,Weather View 32 v70,2013-03-19 18:34:00,
2013-03-19 14:40:00,24.0,23.8,29.54,ENE,67,3.0,24.0,99,0.00,,,0.00,Weather View 32 v70,2013-03-19 18:40:00,
2013-03-19 14:45:00,24.0,23.3,29.54,East,90,10.0,24.0,97,0.00,,,0.00,Weather View 32 v70,2013-03-19 18:45:00,
2013-03-19 14:50:00,24.0,22.8,29.53,ESE,112,12.0,24.0,95,0.00,,,0.00,Weather View 32 v70,2013-03-19 18:50:00,
2013-03-19 14:55:00,24.0,22.5,29.53,East,90,12.0,24.0,94,0.00,,,0.00,Weather View 32 v70,2013-03-19 18:55:00,
2013-03-19 15:00:00,24.0,22.8,29.52,ESE,112,6.0,24.0,95,0.00,,,0.00,Weather View 32 v70,2013-03-19 19:00:00,
2013-03-19 15:05:00,25.0,23.5,29.53,SE,135,11.0,24.0,94,0.00,,,0.00,Weather View 32 v70,2013-03-19 19:05:00,
2013-03-19 15:10:00,24.0,22.5,29.52,SE,135,9.0,24.0,94,0.00,,,0.00,Weather View 32 v70,2013-03-19 19:10:00,
2013-03-19 15:15:00,24.0,23.0,29.52,SE,135,7.0,24.0,96,0.00,,,0.00,Weather View 32 v70,2013-03-19 19:15:00,
2013-03-19 15:20:00,25.0,24.3,29.52,ESE,112,5.0,24.0,97,0.00,,,0.00,Weather View 32 v70,2013-03-19 19:20:00,
2013-03-19 15:25:00,24.0,23.3,29.52,NE,45,5.0,24.0,97,0.00,,,0.00,Weather View 32 v70,2013-03-19 19:25:00,
2013-03-19 15:30:00,25.0,24.5,29.51,East,90,6.0,24.0,98,0.00,,,0.00,Weather View 32 v70,2013-03-19 19:30:00,
2013-03-19 15:35:00,24.0,23.3,29.50,East,90,14.0,21.0,97,0.00,,,0.00,Weather View 32 v70,2013-03-19 19:35:00,
2013-03-19 15:40:00,24.0,23.5,29.50,ENE,67,10.0,21.0,98,0.00,,,0.00,Weather View 32 v70,2013-03-19 19:40:00,
2013-03-19 15:45:00,24.0,23.5,29.49,SSE,157,4.0,21.0,98,0.00,,,0.00,Weather View 32 v70,2013-03-19 19:45:00,
2013-03-19 15:50:00,24.0,23.5,29.49,East,90,6.0,21.0,98,0.00,,,0.00,Weather View 32 v70,2013-03-19 19:50:00,
2013-03-19 15:55:00,24.0,23.8,29.49,ENE,67,7.0,17.0,99,0.00,,,0.00,Weather View 32 v70,2013-03-19 19:55:00,
2013-03-19 16:00:00,24.0,23.8,29.49,East,90,9.0,17.0,99,0.00,,,0.00,Weather View 32 v70,2013-03-19 20:00:00,
2013-03-19 16:05:00,24.0,23.8,29.48,East,90,5.0,17.0,99,0.00,,,0.00,Weather View 32 v70,2013-03-19 20:05:00,
2013-03-19 16:10:00,24.0,23.8,29.47,NE,45,6.0,17.0,99,0.00,,,0.00,Weather View 32 v70,2013-03-19 20:10:00,
2013-03-19 16:15:00,24.0,23.8,29.47,ENE,67,10.0,16.0,99,0.00,,,0.00,Weather View 32 v70,2013-03-19 20:15:00,
2013-03-19 16:20:00,24.0,23.8,29.47,SE,135,7.0,16.0,99,0.00,,,0.00,Weather View 32 v70,2013-03-19 20:20:00,
2013-03-19 16:25:00,24.0,24.0,29.46,ENE,67,9.0,16.0,100,0.00,,,0.00,Weather View 32 v70,2013-03-19 20:25:00,
2013-03-19 16:30:00,24.0,24.0,29.46,ENE,67,7.0,16.0,100,0.00,,,0.00,Weather View 32 v70,2013-03-19 20:30:00,
2013-03-19 16:35:00,24.0,24.0,29.45,NE,45,3.0,14.0,100,0.00,,,0.00,Weather View 32 v70,2013-03-19 20:35:00,
2013-03-19 16:40:00,24.0,24.0,29.42,SE,135,5.0,14.0,100,0.00,,,0.00,Weather View 32 v70,2013-03-19 20:40:00,
2013-03-19 16:45:00,24.0,24.0,29.44,ESE,112,5.0,14.0,100,0.00,,,0.00,Weather View 32 v70,2013-03-19 20:45:00,
2013-03-19 16:50:00,24.0,24.0,29.44,East,90,4.0,14.0,100,0.00,,,0.00,Weather View 32 v70,2013-03-19 20:50:00,
2013-03-19 16:55:00,24.0,24.0,29.43,East,90,1.0,14.0,100,0.00,,,0.00,Weather View 32 v70,2013-03-19 20:55:00,
2013-03-19 17:00:00,24.0,24.0,29.44,ESE,112,4.0,15.0,100,0.00,,,0.00,Weather View 32 v70,2013-03-19 21:00:00,
2013-03-19 17:05:00,24.0,24.0,29.42,NE,45,4.0,15.0,100,0.00,,,0.00,Weather View 32 v70,2013-03-19 21:05:00,
2013-03-19 17:10:00,24.0,24.0,29.42,NE,45,9.0,15.0,100,0.00,,,0.00,Weather View 32 v70,2013-03-19 21:10:00,
2013-03-19 17:15:00,23.0,23.0,29.42,ESE,112,9.0,15.0,100,0.00,,,0.00,Weather View 32 v70,2013-03-19 21:15:00,
2013-03-19 17:20:00,24.0,24.0,29.42,ENE,67,13.0,15.0,100,0.00,,,0.00,Weather View 32 v70,2013-03-19 21:20:00,
2013-03-19 17:25:00,24.0,24.0,29.41,NE,45,7.0,15.0,100,0.00,,,0.00,Weather View 32 v70,2013-03-19 21:25:00,
2013-03-19 17:30:00,24.0,24.0,29.41,NE,45,2.0,15.0,100,0.00,,,0.00,Weather View 32 v70,2013-03-19 21:30:00,
2013-03-19 17:35:00,24.0,24.0,29.41,NE,45,7.0,15.0,100,0.00,,,0.00,Weather View 32 v70,2013-03-19 21:35:00,
2013-03-19 17:40:00,24.0,24.0,29.41,SE,135,5.0,15.0,100,0.00,,,0.00,Weather View 32 v70,2013-03-19 21:40:00,
2013-03-19 17:45:00,24.0,24.0,29.41,NE,45,9.0,15.0,100,0.00,,,0.00,Weather View 32 v70,2013-03-19 21:45:00,
2013-03-19 17:50:00,24.0,24.0,29.41,NE,45,9.0,15.0,100,0.00,,,0.00,Weather View 32 v70,2013-03-19 21:50:00,
2013-03-19 17:55:00,24.0,24.0,29.41,SE,135,2.0,15.0,100,0.00,,,0.00,Weather View 32 v70,2013-03-19 21:55:00,
2013-03-19 18:00:00,24.0,24.0,29.41,ESE,112,3.0,15.0,100,0.00,,,0.00,Weather View 32 v70,2013-03-19 22:00:00,
2013-03-19 18:05:00,24.0,24.0,29.40,North,360,1.0,15.0,100,0.00,,,0.00,Weather View 32 v70,2013-03-19 22:05:00,
2013-03-19 18:10:00,24.0,24.0,29.40,NE,45,6.0,15.0,100,0.00,,,0.00,Weather View 32 v70,2013-03-19 22:10:00,
2013-03-19 18:15:00,24.0,24.0,29.40,NE,45,6.0,15.0,100,0.00,,,0.00,Weather View 32 v70,2013-03-19 22:15:00,
2013-03-19 18:20:00,24.0,24.0,29.40,NE,45,1.0,15.0,100,0.00,,,0.00,Weather View 32 v70,2013-03-19 22:20:00,
2013-03-19 18:25:00,24.0,24.0,29.41,NNE,22,3.0,13.0,100,0.00,,,0.00,Weather View 32 v70,2013-03-19 22:25:00,
2013-03-19 18:30:00,24.0,24.0,29.41,NW,315,6.0,13.0,100,0.00,,,0.00,Weather View 32 v70,2013-03-19 22:30:00,
2013-03-19 18:35:00,24.0,24.0,29.40,NNE,22,4.0,13.0,100,0.00,,,0.00,Weather View 32 v70,2013-03-19 22:35:00,
2013-03-19 18:40:00,24.0,24.0,29.40,NNE,22,6.0,12.0,100,0.00,,,0.00,Weather View 32 v70,2013-03-19 22:40:00,
2013-03-19 18:45:00,24.0,24.0,29.40,NE,45,5.0,12.0,100,0.00,,,0.00,Weather View 32 v70,2013-03-19 22:45:00,
2013-03-19 18:50:00,23.0,23.0,29.39,NE,45,10.0,12.0,100,0.00,,,0.00,Weather View 32 v70,2013-03-19 22:50:00,
2013-03-19 18:55:00,23.0,23.0,29.38,ENE,67,5.0,12.0,100,0.00,,,0.00,Weather View 32 v70,2013-03-19 22:55:00,
2013-03-19 19:00:00,23.0,23.0,29.37,ENE,67,6.0,12.0,100,0.00,,,0.00,Weather View 32 v70,2013-03-19 23:00:00,
2013-03-19 19:05:00,23.0,23.0,29.36,NE,45,9.0,12.0,100,0.00,,,0.00,Weather View 32 v70,2013-03-19 23:05:00,
2013-03-19 19:10:00,23.0,23.0,29.36,NNE,22,7.0,12.0,100,0.00,,,0.00,Weather View 32 v70,2013-03-19 23:10:00,
2013-03-19 19:15:00,23.0,23.0,29.36,SSE,157,0.0,12.0,100,0.00,,,0.00,Weather View 32 v70,2013-03-19 23:15:00,
2013-03-19 19:20:00,23.0,23.0,29.36,NNE,22,3.0,12.0,100,0.00,,,0.00,Weather View 32 v70,2013-03-19 23:20:00,
2013-03-19 19:25:00,23.0,23.0,29.35,NE,45,6.0,12.0,100,0.00,,,0.00,Weather View 32 v70,2013-03-19 23:25:00,
2013-03-19 19:30:00,23.0,23.0,29.36,SE,135,1.0,12.0,100,0.00,,,0.00,Weather View 32 v70,2013-03-19 23:30:00,
2013-03-19 19:35:00,23.0,23.0,29.35,NNE,22,6.0,12.0,100,0.00,,,0.00,Weather View 32 v70,2013-03-19 23:35:00,
2013-03-19 19:40:00,23.0,23.0,29.35,West,270,1.0,12.0,100,0.00,,,0.00,Weather View 32 v70,2013-03-19 23:40:00,
2013-03-19 19:45:00,24.0,24.0,29.35,NE,45,8.0,12.0,100,0.00,,,0.00,Weather View 32 v70,2013-03-19 23:45:00,
2013-03-19 19:50:00,24.0,24.0,29.34,NE,45,3.0,12.0,100,0.00,,,0.00,Weather View 32 v70,2013-03-19 23:50:00,
2013-03-19 19:55:00,23.0,23.0,29.35,NE,45,5.0,12.0,100,0.00,,,0.00,Weather View 32 v70,2013-03-19 23:55:00,
2013-03-19 20:00:00,23.0,23.0,29.34,NNE,22,6.0,12.0,100,0.00,,,0.00,Weather View 32 v70,2013-03-20 00:00:00,
2013-03-19 20:05:00,23.0,23.0,29.34,NNE,22,10.0,12.0,100,0.00,,,0.00,Weather View 32 v70,2013-03-20 00:05:00,
2013-03-19 20:10:00,23.0,23.0,29.33,NNE,22,7.0,12.0,100,0.00,,,0.00,Weather View 32 v70,2013-03-20 00:10:00,
2013-03-19 20:15:00,23.0,23.0,29.33,NNE,22,7.0,13.0,100,0.00,,,0.00,Weather View 32 v70,2013-03-20 00:15:00,
2013-03-19 20:20:00,23.0,23.0,29.33,NE,45,6.0,13.0,100,0.00,,,0.00,Weather View 32 v70,2013-03-20 00:20:00,
2013-03-19 20:25:00,23.0,23.0,29.33,NNE,22,9.0,13.0,100,0.00,,,0.00,Weather View 32 v70,2013-03-20 00:25:00,
2013-03-19 20:30:00,23.0,23.0,29.32,ENE,67,8.0,13.0,100,0.00,,,0.00,Weather View 32 v70,2013-03-20 00:30:00,
2013-03-19 20:35:00,23.0,23.0,29.32,NE,45,9.0,13.0,100,0.00,,,0.00,Weather View 32 v70,2013-03-20 00:35:00,
2013-03-19 20:41:00,23.0,23.0,29.31,NE,45,7.0,13.0,100,0.00,,,0.00,Weather View 32 v70,2013-03-20 00:41:00,
2013-03-19 20:46:00,23.0,23.0,29.30,NE,45,5.0,13.0,100,0.00,,,0.00,Weather View 32 v70,2013-03-20 00:46:00,
2013-03-19 20:51:00,23.0,23.0,29.30,ESE,112,7.0,13.0,100,0.00,,,0.00,Weather View 32 v70,2013-03-20 00:51:00,
2013-03-19 20:56:00,23.0,23.0,29.30,East,90,4.0,13.0,100,0.00,,,0.00,Weather View 32 v70,2013-03-20 00:56:00,
2013-03-19 21:02:00,23.0,23.0,29.29,ENE,67,5.0,13.0,100,0.00,,,0.00,Weather View 32 v70,2013-03-20 01:02:00,
2013-03-19 21:07:00,23.0,23.0,29.28,NE,45,6.0,13.0,100,0.00,,,0.00,Weather View 32 v70,2013-03-20 01:07:00,
2013-03-19 21:12:00,23.0,23.0,29.27,NE,45,5.0,15.0,100,0.00,,,0.00,Weather View 32 v70,2013-03-20 01:12:00,
2013-03-19 21:17:00,23.0,23.0,29.27,East,90,7.0,15.0,100,0.00,,,0.00,Weather View 32 v70,2013-03-20 01:17:00,
2013-03-19 21:22:00,23.0,23.0,29.27,NE,45,9.0,15.0,100,0.00,,,0.00,Weather View 32 v70,2013-03-20 01:22:00,
2013-03-19 21:27:00,23.0,23.0,29.27,East,90,6.0,15.0,100,0.00,,,0.00,Weather View 32 v70,2013-03-20 01:27:00,
2013-03-19 21:32:00,23.0,23.0,29.26,SE,135,1.0,15.0,100,0.00,,,0.00,Weather View 32 v70,2013-03-20 01:32:00,
2013-03-19 21:37:00,23.0,23.0,29.26,ESE,112,1.0,15.0,100,0.00,,,0.00,Weather View 32 v70,2013-03-20 01:37:00,
2013-03-19 21:42:00,23.0,23.0,29.25,ESE,112,7.0,15.0,100,0.00,,,0.00,Weather View 32 v70,2013-03-20 01:42:00,
2013-03-19 21:47:00,24.0,24.0,29.26,ESE,112,8.0,15.0,100,0.00,,,0.00,Weather View 32 v70,2013-03-20 01:47:00,
2013-03-19 21:52:00,24.0,24.0,29.26,SSE,157,3.0,16.0,100,0.00,,,0.00,Weather View 32 v70,2013-03-20 01:52:00,
2013-03-19 21:57:00,24.0,24.0,29.25,ESE,112,9.0,16.0,100,0.00,,,0.00,Weather View 32 v70,2013-03-20 01:57:00,
2013-03-19 22:02:00,24.0,24.0,29.25,ESE,112,7.0,18.0,100,0.00,,,0.00,Weather View 32 v70,2013-03-20 02:02:00,
2013-03-19 22:07:00,24.0,24.0,29.25,SE,135,8.0,21.0,100,0.00,,,0.00,Weather View 32 v70,2013-03-20 02:07:00,
2013-03-19 22:12:00,24.0,24.0,29.25,SE,135,7.0,21.0,100,0.00,,,0.00,Weather View 32 v70,2013-03-20 02:12:00,
2013-03-19 22:17:00,24.0,24.0,29.26,East,90,12.0,21.0,100,0.00,,,0.00,Weather View 32 v70,2013-03-20 02:17:00,
2013-03-19 22:22:00,24.0,24.0,29.24,East,90,9.0,21.0,100,0.00,,,0.00,Weather View 32 v70,2013-03-20 02:22:00,
2013-03-19 22:27:00,24.0,24.0,29.24,East,90,6.0,21.0,100,0.00,,,0.00,Weather View 32 v70,2013-03-20 02:27:00,
2013-03-19 22:32:00,24.0,24.0,29.25,SSE,157,6.0,21.0,100,0.00,,,0.00,Weather View 32 v70,2013-03-20 02:32:00,
2013-03-19 22:38:00,24.0,24.0,29.25,East,90,4.0,21.0,100,0.00,,,0.00,Weather View 32 v70,2013-03-20 02:38:00,
2013-03-19 22:43:00,25.0,25.0,29.24,East,90,6.0,21.0,100,0.00,,,0.00,Weather View 32 v70,2013-03-20 02:43:00,
2013-03-19 22:48:00,24.0,24.0,29.23,ENE,67,4.0,21.0,100,0.00,,,0.00,Weather View 32 v70,2013-03-20 02:48:00,
2013-03-19 22:53:00,24.0,24.0,29.22,East,90,7.0,21.0,100,0.00,,,0.00,Weather View 32 v70,2013-03-20 02:53:00,
2013-03-19 22:58:00,24.0,24.0,29.22,ENE,67,3.0,21.0,100,0.00,,,0.00,Weather View 32 v70,2013-03-20 02:58:00,
2013-03-19 23:03:00,24.0,24.0,29.21,ENE,67,2.0,21.0,100,0.00,,,0.00,Weather View 32 v70,2013-03-20 03:03:00,
2013-03-19 23:08:00,24.0,24.0,29.22,East,90,6.0,19.0,100,0.00,,,0.00,Weather View 32 v70,2013-03-20 03:08:00,
2013-03-19 23:13:00,24.0,24.0,29.22,East,90,7.0,19.0,100,0.00,,,0.00,Weather View 32 v70,2013-03-20 03:13:00,
2013-03-19 23:18:00,24.0,24.0,29.21,East,90,8.0,19.0,100,0.00,,,0.00,Weather View 32 v70,2013-03-20 03:18:00,
2013-03-19 23:23:00,24.0,24.0,29.20,ENE,67,6.0,18.0,100,0.00,,,0.00,Weather View 32 v70,2013-03-20 03:23:00,
2013-03-19 23:28:00,24.0,24.0,29.20,NNE,22,7.0,18.0,100,0.00,,,0.00,Weather View 32 v70,2013-03-20 03:28:00,
2013-03-19 23:33:00,24.0,24.0,29.20,ESE,112,3.0,18.0,100,0.00,,,0.00,Weather View 32 v70,2013-03-20 03:33:00,
2013-03-19 23:38:00,24.0,24.0,29.20,ESE,112,2.0,18.0,100,0.00,,,0.00,Weather View 32 v70,2013-03-20 03:38:00,
2013-03-19 23:43:00,24.0,24.0,29.19,East,90,6.0,18.0,100,0.00,,,0.00,Weather View 32 v70,2013-03-20 03:43:00,
2013-03-19 23:48:00,25.0,25.0,29.16,ESE,112,7.0,18.0,100,0.00,,,0.00,Weather View 32 v70,2013-03-20 03:48:00,
2013-03-19 23:53:00,25.0,25.0,29.18,SSE,157,4.0,18.0,100,0.00,,,0.00,Weather View 32 v70,2013-03-20 03:53:00,
2013-03-19 23:58:00,25.0,25.0,29.18,NE,45,6.0,18.0,100,0.00,,,0.00,Weather View 32 v70,2013-03-20 03:58:00,